Time;durP1;ratioP1;P1;durP2;ratioP2;P2;SDS_P1;SDS_P2;PMS_P1;PMS_P2;Temp;Humidity;BMP_temperature;BMP_pressure;BME280_temperature;BME280_humidity;BME280_pressure;Samples;Min_cycle;Max_cycle;Signal;HPM_P1;HPM_P2
2023/05/09 00:02:11;;;;;;;35.45;26.30;;;19.80;86.20;;;;;;3971784;29;20139;-56
2023/05/09 00:04:54;;;;;;;35.30;27.25;;;19.80;86.40;;;;;;3971665;29;20058;-56
2023/05/09 00:07:34;;;;;;;34.85;27.05;;;19.80;86.40;;;;;;3971584;29;20065;-56
2023/05/09 00:10:15;;;;;;;41.95;28.48;;;19.80;86.40;;;;;;3956918;29;20070;-56
2023/05/09 00:12:57;;;;;;;40.15;28.65;;;19.80;86.40;;;;;;3970668;29;20107;-56
2023/05/09 00:15:38;;;;;;;37.50;26.83;;;19.80;85.60;;;;;;3971632;29;20498;-57
2023/05/09 00:18:19;;;;;;;36.05;26.90;;;19.80;86.40;;;;;;3971682;29;20199;-58
2023/05/09 00:21:02;;;;;;;35.55;26.55;;;19.80;86.40;;;;;;3971726;29;20131;-56
2023/05/09 00:23:43;;;;;;;34.30;26.27;;;19.80;86.30;;;;;;3971341;29;20054;-42
2023/05/09 00:26:25;;;;;;;36.13;27.15;;;19.80;86.30;;;;;;3970456;29;20066;-43
2023/05/09 00:29:06;;;;;;;36.25;26.95;;;19.80;86.20;;;;;;3970723;29;20139;-43
2023/05/09 00:31:47;;;;;;;37.80;29.10;;;19.80;86.20;;;;;;3970882;29;20647;-43
2023/05/09 00:34:28;;;;;;;36.00;27.42;;;19.80;86.20;;;;;;3949394;29;20091;-43
2023/05/09 00:37:10;;;;;;;;;;;19.80;86.20;;;;;;3960279;29;20065;-42
2023/05/09 00:39:51;;;;;;;41.50;29.58;;;19.80;86.10;;;;;;3970876;29;19932;-43
2023/05/09 00:42:32;;;;;;;43.25;28.98;;;19.80;86.00;;;;;;3970617;29;20180;-43
2023/05/09 00:45:14;;;;;;;42.75;29.60;;;19.80;86.10;;;;;;3959519;29;20065;-43
2023/05/09 00:47:56;;;;;;;40.15;28.50;;;19.80;86.10;;;;;;3959790;29;20081;-53
2023/05/09 00:50:36;;;;;;;42.60;28.52;;;19.80;86.20;;;;;;3970096;29;20050;-57
2023/05/09 00:53:19;;;;;;;41.67;29.38;;;19.80;86.20;;;;;;3970725;29;20107;-57
2023/05/09 00:56:00;;;;;;;42.35;29.73;;;19.80;86.20;;;;;;3959327;29;20154;-57
2023/05/09 00:58:41;;;;;;;;;;;19.80;86.20;;;;;;3959308;29;20107;-57
2023/05/09 01:01:22;;;;;;;44.60;29.90;;;19.80;86.10;;;;;;3970250;29;19940;-58
2023/05/09 01:04:04;;;;;;;45.75;28.63;;;19.70;86.00;;;;;;3959611;29;20303;-57
2023/05/09 01:06:55;;;;;;;44.33;29.55;;;19.70;86.20;;;;;;3970735;29;20053;-57
2023/05/09 01:09:43;;;;;;;46.57;31.03;;;19.70;86.20;;;;;;3970968;29;20452;-56
2023/05/09 01:12:34;;;;;;;43.95;30.05;;;19.70;86.20;;;;;;3970818;29;20131;-57
2023/05/09 01:15:24;;;;;;;42.20;29.33;;;19.70;86.30;;;;;;3962594;29;20066;-50
2023/05/09 01:18:11;;;;;;;44.13;29.90;;;19.70;86.20;;;;;;3970726;29;20057;-57
2023/05/09 01:20:58;;;;;;;46.03;30.77;;;19.70;86.20;;;;;;3970746;29;20226;-55
2023/05/09 01:24:26;;;;;;;45.45;30.15;;;19.70;86.20;;;;;;3970564;29;20062;-57
2023/05/09 01:27:22;;;;;;;45.72;31.02;;;19.70;86.30;;;;;;3958810;29;20070;-56
2023/05/09 01:30:06;;;;;;;46.20;30.90;;;19.70;86.30;;;;;;3954237;29;20066;-56
2023/05/09 01:32:51;;;;;;;46.67;32.05;;;19.70;86.20;;;;;;3957509;29;20058;-56
2023/05/09 01:35:38;;;;;;;47.10;32.63;;;19.70;86.00;;;;;;3959044;29;20058;-57
2023/05/09 01:38:23;;;;;;;48.10;32.08;;;19.70;86.10;;;;;;3967900;29;20062;-57
2023/05/09 01:41:06;;;;;;;46.80;30.45;;;19.70;86.20;;;;;;3958804;29;20518;-57
2023/05/09 01:43:49;;;;;;;44.13;31.25;;;19.70;86.30;;;;;;3958520;29;20062;-58
2023/05/09 01:46:32;;;;;;;49.08;32.80;;;19.70;86.40;;;;;;3958185;29;20058;-56
2023/05/09 01:49:13;;;;;;;48.45;32.50;;;19.70;86.50;;;;;;3958283;29;20058;-57
2023/05/09 01:51:56;;;;;;;45.92;32.88;;;19.70;86.50;;;;;;3958823;29;20176;-57
2023/05/09 01:54:38;;;;;;;44.58;31.35;;;19.70;86.50;;;;;;3958673;29;20170;-56
2023/05/09 01:57:21;;;;;;;47.13;31.45;;;19.70;86.60;;;;;;3967869;29;20188;-56
2023/05/09 02:00:03;;;;;;;48.97;31.67;;;19.60;86.50;;;;;;3957783;29;20058;-57
2023/05/09 02:02:55;;;;;;;47.63;32.53;;;19.70;86.60;;;;;;3959038;29;20498;-58
2023/05/09 02:05:37;;;;;;;43.22;30.17;;;19.70;86.50;;;;;;3958657;29;20415;-57
2023/05/09 02:08:20;;;;;;;43.58;30.90;;;19.70;86.60;;;;;;3958866;29;20613;-57
2023/05/09 02:11:01;;;;;;;47.50;31.95;;;19.60;86.60;;;;;;3957788;29;20061;-56
2023/05/09 02:13:42;;;;;;;46.28;31.23;;;19.60;86.60;;;;;;3958577;29;20053;-57
2023/05/09 02:16:23;;;;;;;42.10;30.25;;;19.60;86.60;;;;;;3957785;29;20401;-56
2023/05/09 02:19:06;;;;;;;45.90;31.52;;;19.60;86.60;;;;;;3958380;29;20085;-57
2023/05/09 02:21:47;;;;;;;47.53;32.53;;;19.60;86.60;;;;;;3946979;29;20062;-57
2023/05/09 02:24:28;;;;;;;45.30;30.67;;;19.60;86.60;;;;;;3957542;29;20074;-56
2023/05/09 02:27:11;;;;;;;43.58;29.23;;;19.60;86.60;;;;;;3958236;29;20053;-57
2023/05/09 02:29:57;;;;;;;40.50;29.13;;;19.60;86.60;;;;;;3958353;29;20228;-58
2023/05/09 02:32:39;;;;;;;40.20;29.58;;;19.60;86.80;;;;;;3957403;29;20424;-57
2023/05/09 02:35:24;;;;;;;41.58;29.38;;;19.60;86.80;;;;;;3957341;29;20440;-58
2023/05/09 02:38:06;;;;;;;43.65;29.58;;;19.60;86.80;;;;;;3958335;29;20059;-58
2023/05/09 02:40:48;;;;;;;40.95;30.02;;;19.60;86.80;;;;;;3958213;29;20499;-56
2023/05/09 02:43:31;;;;;;;40.55;29.45;;;19.60;86.80;;;;;;3957176;29;20054;-57
2023/05/09 02:46:12;;;;;;;41.83;28.98;;;19.60;86.50;;;;;;3956916;29;20070;-57
2023/05/09 02:48:53;;;;;;;;;;;19.60;86.50;;;;;;3957655;29;20053;-57
2023/05/09 02:51:35;;;;;;;36.40;27.05;;;19.60;86.50;;;;;;3965814;29;19940;-56
2023/05/09 02:54:17;;;;;;;34.03;26.67;;;19.60;86.50;;;;;;3957394;29;20062;-56
2023/05/09 02:56:58;;;;;;;34.20;24.90;;;19.60;86.60;;;;;;3952281;29;20461;-58
2023/05/09 02:59:39;;;;;;;;;;;19.60;86.80;;;;;;3943590;29;20299;-58
2023/05/09 03:02:20;;;;;;;31.38;23.20;;;19.50;86.70;;;;;;3942261;30;20383;-58
2023/05/09 03:05:01;;;;;;;;;;;19.50;87.50;;;;;;3956273;29;20188;-58
2023/05/09 03:07:44;;;;;;;26.30;19.57;;;19.50;86.60;;;;;;3967186;29;19945;-58
2023/05/09 03:10:25;;;;;;;19.70;16.30;;;19.50;86.70;;;;;;3957501;29;20055;-56
2023/05/09 03:13:06;;;;;;;19.73;15.90;;;19.50;86.70;;;;;;3953825;29;20066;-57
2023/05/09 03:15:47;;;;;;;16.90;15.10;;;19.50;86.80;;;;;;3957425;29;20522;-57
2023/05/09 03:18:28;;;;;;;15.50;13.90;;;19.50;86.80;;;;;;3956501;29;20058;-58
2023/05/09 03:21:08;;;;;;;17.57;15.40;;;19.50;86.80;;;;;;3955946;29;20069;-56
2023/05/09 03:23:52;;;;;;;17.10;14.20;;;19.50;86.80;;;;;;3956253;29;20312;-56
2023/05/09 03:26:34;;;;;;;15.77;14.02;;;19.50;86.80;;;;;;3956226;29;20128;-58
2023/05/09 03:29:15;;;;;;;17.83;14.18;;;19.50;86.80;;;;;;3955817;29;20066;-56
2023/05/09 03:31:56;;;;;;;14.88;13.48;;;19.50;86.80;;;;;;3957633;29;20058;-56
2023/05/09 03:34:36;;;;;;;15.20;13.70;;;19.50;86.80;;;;;;3956272;29;20208;-57
2023/05/09 03:37:18;;;;;;;14.88;13.30;;;19.50;86.80;;;;;;3955917;29;20149;-57
2023/05/09 03:40:01;;;;;;;13.88;12.48;;;19.50;86.80;;;;;;3956272;29;20063;-57
2023/05/09 03:42:45;;;;;;;13.57;12.32;;;19.50;86.80;;;;;;3956327;29;20135;-56
2023/05/09 03:45:26;;;;;;;13.98;11.98;;;19.50;86.70;;;;;;3966114;29;20062;-58
2023/05/09 03:48:08;;;;;;;12.10;10.90;;;19.50;86.70;;;;;;3955878;29;20070;-58
2023/05/09 03:50:54;;;;;;;12.25;10.85;;;19.50;86.60;;;;;;3955840;29;20127;-57
2023/05/09 03:53:38;;;;;;;13.13;11.80;;;19.50;86.50;;;;;;3954536;29;20127;-56
2023/05/09 03:56:22;;;;;;;15.02;11.20;;;19.50;86.60;;;;;;3954002;29;20164;-56
2023/05/09 03:59:04;;;;;;;12.57;10.27;;;19.50;86.50;;;;;;3955878;29;20054;-56
2023/05/09 04:01:46;;;;;;;12.05;10.85;;;19.50;86.50;;;;;;3945643;29;20516;-57
2023/05/09 04:04:28;;;;;;;11.63;10.45;;;19.50;86.40;;;;;;3957080;29;20053;-56
2023/05/09 04:07:09;;;;;;;12.52;10.98;;;19.50;86.40;;;;;;3956146;29;20058;-57
2023/05/09 04:09:50;;;;;;;13.68;10.85;;;19.50;86.40;;;;;;3956020;29;20192;-56
2023/05/09 04:12:33;;;;;;;13.23;11.27;;;19.50;86.40;;;;;;3956181;29;20135;-56
2023/05/09 04:15:14;;;;;;;15.07;12.02;;;19.50;86.40;;;;;;3955946;29;20075;-55
2023/05/09 04:17:57;;;;;;;12.63;11.38;;;19.50;86.50;;;;;;3955222;29;20204;-56
2023/05/09 04:20:37;;;;;;;13.00;11.70;;;19.50;87.30;;;;;;3956983;29;20077;-56
2023/05/09 04:23:18;;;;;;;12.45;11.15;;;19.50;86.50;;;;;;3955459;29;20062;-53
2023/05/09 04:26:00;;;;;;;14.45;12.10;;;19.40;86.40;;;;;;3955679;29;20054;-56
2023/05/09 04:28:43;;;;;;;14.27;11.77;;;19.50;86.50;;;;;;3959199;29;20480;-55
2023/05/09 04:31:26;;;;;;;12.93;11.63;;;19.50;86.50;;;;;;3960136;29;20057;-56
2023/05/09 04:34:07;;;;;;;13.25;11.95;;;19.40;86.30;;;;;;3971288;29;20065;-56
2023/05/09 04:36:50;;;;;;;12.68;11.38;;;19.40;86.30;;;;;;3960012;29;20400;-56
2023/05/09 04:39:32;;;;;;;13.45;11.75;;;19.40;86.40;;;;;;3970691;29;20613;-55
2023/05/09 04:42:20;;;;;;;14.23;11.27;;;19.40;86.40;;;;;;3959556;29;20119;-56
2023/05/09 04:45:03;;;;;;;;;;;19.50;86.50;;;;;;3960162;29;20532;-56
2023/05/09 04:47:45;;;;;;;15.55;12.10;;;19.40;86.40;;;;;;3971233;29;19932;-57
2023/05/09 04:50:27;;;;;;;13.38;11.98;;;19.40;86.40;;;;;;3959639;29;20107;-56
2023/05/09 04:53:08;;;;;;;15.40;12.40;;;19.40;86.50;;;;;;3970678;29;20146;-55
2023/05/09 04:55:50;;;;;;;;;;;19.40;87.30;;;;;;3949546;29;20050;-53
2023/05/09 04:58:33;;;;;;;14.77;12.88;;;19.40;86.40;;;;;;3969831;29;19972;-56
2023/05/09 05:01:15;;;;;;;13.82;12.15;;;19.40;86.50;;;;;;3959108;29;20053;-56
2023/05/09 05:03:57;;;;;;;13.95;12.45;;;19.40;86.50;;;;;;3959710;29;20180;-56
2023/05/09 05:06:38;;;;;;;13.80;12.32;;;19.40;86.60;;;;;;3959117;29;20066;-54
2023/05/09 05:09:19;;;;;;;17.33;13.18;;;19.40;86.60;;;;;;3962339;29;20061;-58
2023/05/09 05:12:00;;;;;;;;;;;19.40;86.70;;;;;;3962779;29;20125;-56
2023/05/09 05:14:44;;;;;;;15.07;12.40;;;19.40;86.60;;;;;;3973961;29;19932;-57
2023/05/09 05:17:32;;;;;;;14.52;12.52;;;19.40;86.60;;;;;;3972398;29;20061;-55
2023/05/09 05:20:15;;;;;;;13.40;12.00;;;19.40;86.60;;;;;;3960974;29;20061;-55
2023/05/09 05:22:58;;;;;;;15.88;12.90;;;19.30;86.60;;;;;;3962401;29;20069;-55
2023/05/09 05:25:39;;;;;;;17.27;13.90;;;19.40;86.50;;;;;;3973475;29;20906;-55
2023/05/09 05:28:20;;;;;;;18.05;13.60;;;19.30;86.40;;;;;;3972784;29;20054;-56
2023/05/09 05:31:01;;;;;;;18.98;13.85;;;19.30;86.50;;;;;;3951881;29;20050;-57
2023/05/09 05:33:43;;;;;;;15.05;12.77;;;19.30;86.50;;;;;;3970343;29;20538;-53
2023/05/09 05:36:24;;;;;;;15.85;13.35;;;19.40;86.70;;;;;;3973511;29;20415;-52
2023/05/09 05:39:06;;;;;;;;;;;19.30;86.70;;;;;;3972262;29;20077;-58
2023/05/09 05:41:47;;;;;;;17.63;13.88;;;19.30;86.70;;;;;;3958067;29;19951;-58
2023/05/09 05:44:29;;;;;;;18.85;14.23;;;19.30;86.70;;;;;;3947227;29;20104;-52
2023/05/09 05:47:10;;;;;;;15.52;12.55;;;19.30;86.80;;;;;;3948658;29;20066;-54
2023/05/09 05:49:53;;;;;;;18.08;14.88;;;19.30;87.10;;;;;;3972780;29;20130;-55
2023/05/09 05:52:34;;;;;;;17.70;14.73;;;19.30;87.30;;;;;;3973598;29;20061;-56
2023/05/09 05:55:15;;;;;;;17.20;14.40;;;19.30;87.50;;;;;;3961249;29;20518;-56
2023/05/09 05:57:58;;;;;;;19.80;14.82;;;19.40;87.40;;;;;;3960830;29;20147;-57
2023/05/09 06:00:40;;;;;;;15.48;13.90;;;19.40;87.60;;;;;;3961731;29;20058;-56
2023/05/09 06:03:21;;;;;;;;;;;19.40;87.70;;;;;;3962132;29;20065;-56
2023/05/09 06:06:10;;;;;;;16.98;15.23;;;19.40;88.50;;;;;;3972193;29;20392;-55
2023/05/09 06:08:51;;;;;;;17.90;14.20;;;19.40;87.70;;;;;;3973461;29;20054;-55
2023/05/09 06:11:33;;;;;;;16.55;14.15;;;19.40;87.70;;;;;;3961099;29;20101;-55
2023/05/09 06:14:14;;;;;;;16.77;14.63;;;19.40;87.70;;;;;;3960223;29;20069;-56
2023/05/09 06:16:55;;;;;;;18.27;15.30;;;19.40;87.60;;;;;;3969611;29;20112;-56
2023/05/09 06:19:37;;;;;;;17.45;15.65;;;19.40;87.50;;;;;;3957576;29;20054;-57
2023/05/09 06:22:19;;;;;;;17.83;15.07;;;19.40;87.60;;;;;;3946665;30;20076;-56
2023/05/09 06:25:00;;;;;;;18.60;15.32;;;19.40;87.50;;;;;;3958218;29;20412;-56
2023/05/09 06:27:41;;;;;;;19.05;15.43;;;19.40;87.50;;;;;;3957178;29;20085;-54
2023/05/09 06:30:22;;;;;;;22.40;16.60;;;19.50;87.50;;;;;;3960902;29;20061;-56
2023/05/09 06:33:06;;;;;;;16.80;15.10;;;19.40;87.40;;;;;;3972487;29;20058;-56
2023/05/09 06:35:47;;;;;;;17.98;15.52;;;19.40;87.50;;;;;;3970597;29;20098;-55
2023/05/09 06:38:29;;;;;;;18.95;16.33;;;19.40;87.50;;;;;;3987829;29;20053;-55
2023/05/09 06:41:10;;;;;;;23.67;16.00;;;19.40;87.50;;;;;;3958103;29;20896;-55
2023/05/09 06:43:52;;;;;;;19.45;16.20;;;19.40;87.50;;;;;;3958040;29;20051;-55
2023/05/09 06:46:32;;;;;;;17.90;16.00;;;19.40;87.50;;;;;;3957266;30;20065;-56
2023/05/09 06:49:13;;;;;;;21.23;17.00;;;19.40;87.40;;;;;;3958086;29;20571;-56
2023/05/09 06:51:54;;;;;;;19.83;16.15;;;19.40;87.50;;;;;;3968780;29;20295;-56
2023/05/09 06:54:37;;;;;;;20.15;16.88;;;19.40;87.40;;;;;;3981182;29;20057;-42
2023/05/09 06:57:18;;;;;;;19.83;17.38;;;19.40;87.40;;;;;;3987374;29;20162;-42
2023/05/09 06:59:59;;;;;;;21.75;17.77;;;19.40;87.50;;;;;;3976511;29;20053;-42
2023/05/09 07:02:40;;;;;;;22.70;18.33;;;19.40;87.50;;;;;;3984717;29;20062;-43
2023/05/09 07:05:22;;;;;;;20.38;18.20;;;19.40;87.50;;;;;;3957241;29;20395;-42
2023/05/09 07:08:03;;;;;;;21.25;18.67;;;19.40;87.50;;;;;;3971898;29;20054;-42
2023/05/09 07:10:45;;;;;;;22.42;19.85;;;19.40;87.40;;;;;;3968926;29;20053;-42
2023/05/09 07:13:25;;;;;;;22.80;18.50;;;19.50;87.50;;;;;;3972527;29;20180;-42
2023/05/09 07:16:07;;;;;;;22.08;19.75;;;19.40;87.70;;;;;;3958389;29;20061;-41
2023/05/09 07:18:47;;;;;;;19.88;17.88;;;19.40;87.50;;;;;;3957442;29;20058;-42
2023/05/09 07:21:29;;;;;;;22.25;19.55;;;19.40;87.40;;;;;;3969223;29;20062;-41
2023/05/09 07:24:10;;;;;;;27.23;21.20;;;19.40;87.50;;;;;;3972274;29;20065;-41
2023/05/09 07:26:52;;;;;;;26.33;20.92;;;19.40;87.40;;;;;;3985360;29;20422;-41
2023/05/09 07:29:33;;;;;;;22.60;20.27;;;19.40;87.50;;;;;;3985595;29;20106;-41
2023/05/09 07:32:14;;;;;;;28.42;22.85;;;19.50;87.60;;;;;;3972412;29;20062;-42
2023/05/09 07:34:55;;;;;;;27.90;22.65;;;19.40;87.60;;;;;;3971707;29;20062;-42
2023/05/09 07:37:36;;;;;;;32.17;23.70;;;19.40;87.60;;;;;;3945793;30;20054;-41
2023/05/09 07:40:17;;;;;;;33.58;25.23;;;19.40;87.70;;;;;;3956040;29;20062;-41
2023/05/09 07:42:59;;;;;;;33.58;24.40;;;19.40;87.60;;;;;;3957145;29;20506;-42
2023/05/09 07:45:40;;;;;;;33.47;25.05;;;19.40;87.70;;;;;;3957069;29;20387;-42
2023/05/09 07:48:22;;;;;;;34.55;26.15;;;19.40;88.60;;;;;;3966941;29;20053;-42
2023/05/09 07:51:03;;;;;;;37.63;26.17;;;19.40;87.80;;;;;;3971523;29;20486;-42
2023/05/09 07:53:44;;;;;;;40.60;28.73;;;19.40;87.80;;;;;;3972082;29;20066;-42
2023/05/09 07:56:25;;;;;;;38.83;27.40;;;19.40;87.80;;;;;;3971874;29;20058;-42
2023/05/09 07:59:07;;;;;;;43.63;28.65;;;19.50;87.90;;;;;;3960415;29;20066;-44
2023/05/09 08:01:48;;;;;;;37.17;27.85;;;19.40;87.90;;;;;;3970615;29;20065;-41
2023/05/09 08:04:29;;;;;;;38.55;27.48;;;19.50;88.00;;;;;;3970139;29;20093;-42
2023/05/09 08:07:10;;;;;;;42.35;28.38;;;19.50;87.90;;;;;;3967394;29;20057;-42
2023/05/09 08:09:51;;;;;;;41.65;28.55;;;19.50;87.90;;;;;;3959311;29;20491;-42
2023/05/09 08:12:32;;;;;;;41.50;28.90;;;19.40;88.10;;;;;;3970528;29;20053;-42
2023/05/09 08:15:15;;;;;;;44.03;30.45;;;19.40;87.80;;;;;;3969977;29;20062;-42
2023/05/09 08:17:56;;;;;;;43.17;29.27;;;19.40;88.00;;;;;;3956212;29;20515;-42
2023/05/09 08:20:37;;;;;;;40.22;28.60;;;19.40;87.90;;;;;;3965863;29;20130;-42
2023/05/09 08:23:18;;;;;;;45.45;30.02;;;19.40;88.00;;;;;;3967803;29;20571;-43
2023/05/09 08:25:59;;;;;;;43.38;29.25;;;19.40;88.00;;;;;;3959175;29;20518;-42
2023/05/09 08:28:40;;;;;;;;;;;19.40;88.00;;;;;;3965095;29;20512;-55
2023/05/09 08:31:22;;;;;;;38.63;26.83;;;19.40;88.00;;;;;;3971725;29;19932;-54
2023/05/09 08:34:03;;;;;;;43.55;27.77;;;19.40;87.80;;;;;;3956701;29;20400;-56
2023/05/09 08:36:45;;;;;;;42.53;28.90;;;19.40;87.90;;;;;;3956555;29;20066;-56
2023/05/09 08:39:29;;;;;;;41.30;27.30;;;19.40;87.90;;;;;;3956303;29;20419;-56
2023/05/09 08:42:10;;;;;;;41.28;28.77;;;19.40;88.10;;;;;;3970542;29;20538;-56
2023/05/09 08:44:51;;;;;;;49.47;31.02;;;19.40;88.20;;;;;;3970864;29;20069;-55
2023/05/09 08:47:35;;;;;;;;;;;19.40;88.10;;;;;;3956703;29;20515;-56
2023/05/09 08:50:17;;;;;;;44.13;28.17;;;19.40;88.10;;;;;;3964450;29;19939;-56
2023/05/09 08:52:57;;;;;;;40.38;28.65;;;19.40;87.80;;;;;;3971185;29;20062;-55
2023/05/09 08:55:39;;;;;;;48.97;30.70;;;19.40;87.90;;;;;;3971166;29;20098;-56
2023/05/09 08:58:21;;;;;;;43.10;28.15;;;19.50;88.00;;;;;;3971078;29;20074;-55
2023/05/09 09:01:05;;;;;;;45.95;29.35;;;19.50;88.10;;;;;;3970591;29;20228;-55
2023/05/09 09:03:48;;;;;;;48.83;29.95;;;19.50;88.10;;;;;;3956077;29;20059;-57
2023/05/09 09:06:31;;;;;;;43.42;29.98;;;19.50;88.00;;;;;;3956158;29;20054;-56
2023/05/09 09:09:13;;;;;;;43.47;29.52;;;19.50;88.00;;;;;;3959504;29;20167;-56
2023/05/09 09:11:54;;;;;;;41.65;29.20;;;19.50;88.10;;;;;;3970765;29;20073;-56
2023/05/09 09:14:37;;;;;;;;;;;19.50;88.10;;;;;;3971612;29;20507;-55
2023/05/09 09:17:20;;;;;;;46.13;29.42;;;19.50;87.90;;;;;;3971028;29;19932;-56
2023/05/09 09:20:07;;;;;;;49.13;31.33;;;19.50;87.60;;;;;;3970896;29;20183;-57
2023/05/09 09:22:50;;;;;;;52.45;31.10;;;19.50;88.00;;;;;;3970137;29;20179;-56
2023/05/09 09:25:31;;;;;;;45.22;30.98;;;19.60;88.30;;;;;;3970947;29;20192;-55
2023/05/09 09:28:12;;;;;;;50.50;30.17;;;19.60;88.30;;;;;;3970418;29;20062;-55
2023/05/09 09:30:53;;;;;;;54.40;31.95;;;19.60;88.50;;;;;;3970823;29;20131;-57
2023/05/09 09:33:38;;;;;;;47.45;29.77;;;19.60;88.30;;;;;;3970936;29;20065;-56
2023/05/09 09:36:28;;;;;;;44.33;28.42;;;19.60;88.00;;;;;;3970244;29;20187;-58
2023/05/09 09:39:13;;;;;;;47.72;30.63;;;19.60;88.30;;;;;;3956328;29;20063;-56
2023/05/09 09:41:54;;;;;;;49.33;31.10;;;19.70;88.10;;;;;;3970843;29;20061;-55
2023/05/09 09:44:35;;;;;;;41.00;29.15;;;19.70;88.00;;;;;;3970862;29;20157;-55
2023/05/09 09:47:15;;;;;;;42.38;27.77;;;19.70;88.80;;;;;;3970527;29;20075;-57
2023/05/09 09:49:56;;;;;;;47.15;27.88;;;19.70;87.80;;;;;;3970530;29;20062;-57
2023/05/09 09:52:42;;;;;;;48.47;28.35;;;19.70;87.60;;;;;;3959646;29;20049;-57
2023/05/09 09:55:25;;;;;;;42.25;28.15;;;19.80;87.70;;;;;;3973643;29;20066;-55
2023/05/09 09:58:16;;;;;;;43.70;27.50;;;19.80;87.50;;;;;;3973387;29;20065;-57
2023/05/09 10:01:08;;;;;;;43.60;28.25;;;19.90;87.60;;;;;;3973415;29;20112;-57
2023/05/09 10:03:49;;;;;;;40.80;27.05;;;19.90;87.40;;;;;;3973347;29;20550;-56
2023/05/09 10:06:30;;;;;;;37.90;26.08;;;19.90;87.20;;;;;;3967640;29;20143;-56
2023/05/09 10:09:12;;;;;;;40.45;26.95;;;19.90;87.10;;;;;;3973932;29;20065;-57
2023/05/09 10:11:55;;;;;;;37.22;26.27;;;19.90;87.30;;;;;;3972661;29;20053;-57
2023/05/09 10:14:38;;;;;;;39.75;25.75;;;19.90;87.20;;;;;;3972842;29;20111;-56
2023/05/09 10:17:21;;;;;;;36.25;23.73;;;19.90;87.20;;;;;;3972927;29;20053;-57
2023/05/09 10:20:04;;;;;;;38.67;27.35;;;20.00;87.00;;;;;;3972644;29;20103;-55
2023/05/09 10:22:46;;;;;;;36.33;26.05;;;20.00;87.10;;;;;;3972953;29;20061;-55
2023/05/09 10:25:38;;;;;;;35.20;24.35;;;20.00;87.00;;;;;;3973141;29;20058;-56
2023/05/09 10:28:24;;;;;;;33.10;23.98;;;20.00;87.00;;;;;;3972650;29;20065;-50
2023/05/09 10:31:12;;;;;;;34.00;25.35;;;20.00;86.80;;;;;;3972591;29;20184;-57
2023/05/09 10:33:54;;;;;;;34.05;23.98;;;20.00;86.70;;;;;;3972311;29;20054;-57
2023/05/09 10:36:35;;;;;;;33.65;24.65;;;19.90;86.70;;;;;;3973067;29;20057;-57
2023/05/09 10:39:17;;;;;;;36.00;24.52;;;20.00;86.80;;;;;;3972812;29;20062;-56
2023/05/09 10:42:00;;;;;;;37.72;25.40;;;20.00;86.80;;;;;;3972947;29;20057;-57
2023/05/09 10:44:41;;;;;;;34.70;25.65;;;19.90;86.80;;;;;;3972584;29;20237;-56
2023/05/09 10:47:23;;;;;;;38.05;25.30;;;19.90;86.90;;;;;;3972650;29;20062;-54
2023/05/09 10:50:06;;;;;;;36.65;25.45;;;19.90;87.00;;;;;;3968999;29;20521;-55
2023/05/09 10:53:07;;;;;;;32.10;24.52;;;20.00;87.00;;;;;;3986537;29;20057;-57
2023/05/09 10:55:49;;;;;;;;;;;19.90;87.20;;;;;;3981317;29;20521;-55
2023/05/09 10:58:34;;;;;;;40.50;26.63;;;20.00;87.00;;;;;;3972099;29;20287;-56
2023/05/09 11:01:29;;;;;;;40.88;26.27;;;19.90;86.70;;;;;;3969964;29;20156;-56
2023/05/09 11:04:13;;;;;;;35.72;27.10;;;19.90;87.00;;;;;;3987390;29;20566;-57
2023/05/09 11:06:54;;;;;;;41.97;26.75;;;20.00;87.00;;;;;;3987250;29;20060;-55
2023/05/09 11:09:40;;;;;;;36.95;26.10;;;20.00;87.10;;;;;;3987091;29;20061;-57
2023/05/09 11:12:23;;;;;;;36.33;26.30;;;20.00;87.10;;;;;;3975571;29;20062;-55
2023/05/09 11:15:07;;;;;;;38.85;27.52;;;20.10;87.10;;;;;;3972559;29;20069;-57
2023/05/09 11:18:04;;;;;;;33.70;25.88;;;20.10;87.10;;;;;;3957629;29;20066;-57
2023/05/09 11:20:48;;;;;;;34.45;25.58;;;20.10;86.80;;;;;;3956480;29;20062;-57
2023/05/09 11:23:30;;;;;;;32.72;26.05;;;20.10;86.70;;;;;;3957412;29;20062;-55
2023/05/09 11:26:11;;;;;;;39.88;27.77;;;20.20;87.40;;;;;;3970420;29;20118;-54
2023/05/09 11:28:55;;;;;;;38.10;28.17;;;20.20;86.30;;;;;;3972013;29;20093;-55
2023/05/09 11:32:07;;;;;;;37.72;27.55;;;20.20;86.20;;;;;;3972080;29;20061;-57
2023/05/09 11:34:50;;;;;;;43.30;29.10;;;20.20;86.30;;;;;;3963868;29;20054;-56
2023/05/09 11:37:31;;;;;;;42.20;30.50;;;20.20;86.10;;;;;;3972189;29;20111;-57
2023/05/09 11:40:13;;;;;;;45.85;27.90;;;20.20;86.30;;;;;;3956952;29;20133;-52
2023/05/09 11:42:56;;;;;;;41.05;27.20;;;20.20;87.10;;;;;;3956351;29;20062;-57
2023/05/09 11:45:40;;;;;;;46.03;31.38;;;20.20;86.30;;;;;;3956915;29;20155;-56
2023/05/09 11:48:23;;;;;;;44.67;30.40;;;20.20;86.40;;;;;;3954183;29;20411;-56
2023/05/09 11:51:04;;;;;;;46.47;29.40;;;20.20;86.40;;;;;;3987041;29;20115;-56
2023/05/09 11:53:45;;;;;;;44.03;29.77;;;20.20;86.20;;;;;;3968383;29;20126;-42
2023/05/09 11:56:26;;;;;;;;;;;20.20;86.30;;;;;;3971984;29;20062;-42
2023/05/09 11:59:09;;;;;;;44.88;28.73;;;20.20;86.30;;;;;;3971528;29;19985;-42
2023/05/09 12:01:50;;;;;;;42.45;29.20;;;20.20;86.10;;;;;;3971140;29;20169;-43
2023/05/09 12:04:33;;;;;;;44.97;30.63;;;20.20;86.30;;;;;;3973383;29;20391;-43
2023/05/09 12:07:15;;;;;;;47.70;30.10;;;20.20;86.30;;;;;;3971350;29;20058;-42
2023/05/09 12:09:56;;;;;;;45.08;30.50;;;20.20;86.20;;;;;;3960239;29;20061;-43
2023/05/09 12:12:43;;;;;;;43.58;30.38;;;20.20;86.30;;;;;;3971816;29;20402;-42
2023/05/09 12:15:24;;;;;;;49.13;31.63;;;20.20;86.30;;;;;;3971617;29;20411;-43
2023/05/09 12:18:06;;;;;;;50.10;31.42;;;20.20;86.80;;;;;;3971170;29;20606;-42
2023/05/09 12:20:50;;;;;;;47.00;30.42;;;20.20;86.80;;;;;;3971380;29;20061;-42
2023/05/09 12:23:34;;;;;;;49.25;30.83;;;20.20;86.80;;;;;;3971287;29;20057;-42
2023/05/09 12:26:16;;;;;;;50.67;32.00;;;20.20;86.80;;;;;;3970272;29;20065;-42
2023/05/09 12:28:57;;;;;;;50.67;31.60;;;20.30;86.80;;;;;;3970512;29;20558;-41
2023/05/09 12:31:38;;;;;;;55.38;31.90;;;20.30;86.70;;;;;;3986365;29;20053;-42
2023/05/09 12:34:19;;;;;;;45.13;30.05;;;20.30;86.50;;;;;;3956842;29;20054;-55
2023/05/09 12:37:02;;;;;;;50.58;32.55;;;20.30;86.40;;;;;;3953873;29;20240;-55
2023/05/09 12:39:43;;;;;;;54.30;32.15;;;20.30;87.20;;;;;;3959463;29;20279;-54
2023/05/09 12:42:28;;;;;;;48.88;31.67;;;20.30;86.20;;;;;;3971140;29;20053;-55
2023/05/09 12:45:10;;;;;;;47.35;31.05;;;20.30;86.00;;;;;;3971030;29;20065;-54
2023/05/09 12:47:52;;;;;;;49.95;30.45;;;20.40;86.00;;;;;;3970890;29;20058;-56
2023/05/09 12:50:34;;;;;;;52.58;31.45;;;20.40;86.00;;;;;;3970469;29;20094;-56
2023/05/09 12:53:25;;;;;;;53.75;32.55;;;20.40;86.30;;;;;;3968314;29;20078;-54
2023/05/09 12:56:12;;;;;;;53.03;32.00;;;20.40;86.50;;;;;;3970207;29;22398;-55
2023/05/09 12:58:54;;;;;;;45.63;30.30;;;20.40;86.40;;;;;;3970165;29;20423;-55
2023/05/09 13:01:36;;;;;;;45.42;29.17;;;20.40;86.50;;;;;;3970266;29;20053;-54
2023/05/09 13:04:20;;;;;;;46.33;31.08;;;20.40;86.50;;;;;;3969543;29;20058;-55
2023/05/09 13:07:01;;;;;;;48.08;30.10;;;20.40;86.40;;;;;;3969500;29;20108;-55
2023/05/09 13:09:56;;;;;;;52.28;32.88;;;20.40;86.30;;;;;;3955776;29;20225;-55
2023/05/09 13:12:38;;;;;;;52.17;32.97;;;20.40;86.30;;;;;;3965973;29;20054;-55
2023/05/09 13:15:20;;;;;;;;;;;20.40;86.10;;;;;;3959863;29;20216;-53
2023/05/09 13:18:01;;;;;;;45.88;27.80;;;20.40;86.10;;;;;;3973662;29;20414;-56
2023/05/09 13:20:42;;;;;;;32.03;19.33;;;20.40;86.00;;;;;;3985053;29;20049;-54
2023/05/09 13:23:23;;;;;;;35.95;21.92;;;20.40;85.90;;;;;;3971089;29;20058;-55
2023/05/09 13:26:05;;;;;;;47.17;27.40;;;20.40;85.60;;;;;;3970156;29;20518;-56
2023/05/09 13:28:46;;;;;;;43.47;25.98;;;20.40;85.40;;;;;;3970436;29;20062;-55
2023/05/09 13:31:27;;;;;;;39.27;24.87;;;20.40;85.40;;;;;;3972078;29;20109;-55
2023/05/09 13:34:07;;;;;;;37.25;23.67;;;20.40;85.50;;;;;;3958332;29;20143;-56
2023/05/09 13:36:49;;;;;;;39.45;25.95;;;20.40;85.40;;;;;;3969754;29;20530;-55
2023/05/09 13:39:30;;;;;;;36.60;24.80;;;20.40;85.40;;;;;;3966390;29;20073;-54
2023/05/09 13:42:12;;;;;;;;;;;20.40;85.50;;;;;;3976519;29;20103;-55
2023/05/09 13:44:53;;;;;;;46.50;27.30;;;20.40;85.60;;;;;;3987633;29;20340;-55
2023/05/09 13:47:35;;;;;;;46.63;27.85;;;20.30;85.50;;;;;;3980724;29;20093;-56
2023/05/09 13:50:17;;;;;;;51.72;30.67;;;20.30;85.80;;;;;;3965046;29;20185;-56
2023/05/09 13:52:58;;;;;;;;;;;20.30;86.00;;;;;;3973468;29;20076;-53